Meteorología y climatología de Navarra
Datos de la estación - Meteo Navarra

Estación de Eltzaburu GN

Altitud 588 m.


Datos desde el 30/06/2020 hasta el 01/07/2020 en horario solar
Los datos son PROVISIONALES

Anterior Página 1 de 1 Siguiente Descargar: Formato para Excel 2000 o superior   Formato csv   Formato para OpenOffice Calc
Fecha Temperatura Humedad relativa Radiación global Insolación Precipitación Vel. viento 10 m Vel. viento 10 m Dir. viento 10 m
ºC % W/m² s l/m² m/s km/h º
30/06/2020 0:00 13.7 92 0.0 0 0.0 1.8 6.6 333
30/06/2020 0:10 13.5 92 0.0 0 0.0 1.3 4.5 336
30/06/2020 0:20 13.5 92 0.0 0 0.0 1.5 5.4 332
30/06/2020 0:30 13.3 92 0.0 0 0.0 1.8 6.5 326
30/06/2020 0:40 13.6 91 0.0 0 0.0 2.3 8.1 315
30/06/2020 0:50 13.7 90 0.0 0 0.0 1.6 5.9 298
30/06/2020 1:00 13.5 90 0.0 0 0.0 1.4 5.0 304
30/06/2020 1:10 13.3 91 0.0 0 0.0 1.6 5.8 320
30/06/2020 1:20 13.1 92 0.0 0 0.0 1.9 6.9 317
30/06/2020 1:30 13.1 92 0.0 0 0.0 0.9 3.1 318
30/06/2020 1:40 12.9 93 0.0 0 0.0 1.4 4.9 329
30/06/2020 1:50 12.6 94 0.0 0 0.0 2.1 7.4 323
30/06/2020 2:00 12.9 95 0.0 0 0.0 2.4 8.5 323
30/06/2020 2:10 13.0 94 0.0 0 0.0 1.7 6.0 322
30/06/2020 2:20 12.8 94 0.0 0 0.0 0.6 2.3 217
30/06/2020 2:30 12.6 94 0.0 0 0.0 1.3 4.7 282
30/06/2020 2:40 12.4 95 0.0 0 0.0 1.4 5.0 325
30/06/2020 2:50 12.5 95 0.0 0 0.0 1.8 6.6 315
30/06/2020 3:00 12.3 95 0.0 0 0.0 1.1 3.9 326
30/06/2020 3:10 12.3 95 0.0 0 0.0 1.4 5.0 334
30/06/2020 3:20 12.3 95 0.0 0 0.0 1.5 5.4 327
30/06/2020 3:30 12.0 95 0.0 0 0.0 1.7 6.2 328
30/06/2020 3:40 12.1 96 0.0 0 0.0 2.0 7.2 328
30/06/2020 3:50 12.4 96 0.0 0 0.0 2.1 7.4 317
30/06/2020 4:00 12.4 94 0.0 0 0.0 1.3 4.8 310
30/06/2020 4:10 12.2 95 0.0 0 0.0 1.5 5.4 305
30/06/2020 4:20 11.8 96 0.0 0 0.0 1.1 3.8 315
30/06/2020 4:30 11.5 96 0.0 0 0.0 0.9 3.2 328
30/06/2020 4:40 11.4 97 0.0 0 0.0 0.7 2.4 328
30/06/2020 4:50 11.3 97 0.0 0 0.0 0.3 1.1 247
30/06/2020 5:00 11.1 97 2.5 0 0.0 0.5 1.9 313
30/06/2020 5:10 11.0 97 17.1 0 0.0 0.8 2.8 320
30/06/2020 5:20 10.9 97 30.7 0 0.0 0.4 1.4 250
30/06/2020 5:30 11.1 98 50.9 0 0.0 0.4 1.3 254
30/06/2020 5:40 11.2 98 47.0 0 0.0 0.4 1.3 34
30/06/2020 5:50 11.2 98 48.1 0 0.0 0.4 1.3 28
30/06/2020 6:00 11.3 98 56.1 0 0.0 0.3 1.1 29
30/06/2020 6:10 11.5 98 119.3 246 0.0 0.1 0.5 106
30/06/2020 6:20 12.1 98 214.1 600 0.0 0.2 0.7 170
30/06/2020 6:30 12.4 97 240.9 600 0.0 0.3 1.0 112
30/06/2020 6:40 12.9 93 282.0 600 0.0 0.2 0.7 166
30/06/2020 6:50 13.3 92 318.0 600 0.0 0.1 0.4 184
30/06/2020 7:00 13.7 91 350.9 600 0.0 0.3 1.2 105
30/06/2020 7:10 14.4 87 386.8 600 0.0 0.6 2.2 150
30/06/2020 7:20 14.8 88 419.5 600 0.0 0.6 2.3 160
30/06/2020 7:30 15.2 87 445.2 600 0.0 0.7 2.6 170
30/06/2020 7:40 15.5 85 481.4 600 0.0 0.9 3.1 182
30/06/2020 7:50 15.9 83 519.0 600 0.0 0.9 3.2 191
30/06/2020 8:00 16.6 80 547.1 600 0.0 0.4 1.4 195
30/06/2020 8:10 17.2 77 573.4 600 0.0 0.6 2.1 225
30/06/2020 8:20 17.3 77 601.8 600 0.0 0.8 2.8 263
30/06/2020 8:30 17.7 76 644.2 600 0.0 0.7 2.6 360
30/06/2020 8:40 18.2 72 386.1 350 0.0 1.0 3.5 27
30/06/2020 8:50 18.9 68 447.9 600 0.0 0.8 2.8 124
30/06/2020 9:00 19.3 65 469.9 600 0.0 0.9 3.3 144
30/06/2020 9:10 19.5 67 441.4 600 0.0 0.8 2.9 164
30/06/2020 9:20 19.6 62 453.7 504 0.0 0.9 3.2 64
30/06/2020 9:30 19.7 60 517.9 600 0.0 0.7 2.6 63
30/06/2020 9:40 20.5 56 658.1 600 0.0 0.5 1.9 44
30/06/2020 9:50 20.9 52 657.3 600 0.0 0.7 2.4 25
30/06/2020 10:00 21.4 48 606.7 600 0.0 0.4 1.5 18
30/06/2020 10:10 21.7 50 743.3 592 0.0 0.9 3.2 7
30/06/2020 10:20 21.8 56 884.0 600 0.0 0.6 2.3 304
30/06/2020 10:30 22.3 59 915.0 600 0.0 0.9 3.4 282
30/06/2020 10:40 22.7 62 933.0 600 0.0 1.0 3.4 231
30/06/2020 10:50 23.0 65 944.0 600 0.0 1.0 3.5 60
30/06/2020 11:00 23.3 65 950.0 600 0.0 2.4 8.8 182
30/06/2020 11:10 23.9 63 963.0 600 0.0 1.5 5.3 165
30/06/2020 11:20 24.3 64 983.0 600 0.0 1.6 5.9 176
30/06/2020 11:30 24.7 61 990.0 600 0.0 1.6 5.8 190
30/06/2020 11:40 24.7 62 1006.0 600 0.0 1.4 5.1 180
30/06/2020 11:50 25.1 61 1015.0 600 0.0 1.2 4.3 167
30/06/2020 12:00 25.2 60 1019.0 600 0.0 0.9 3.2 145
30/06/2020 12:10 25.5 60 1018.0 600 0.0 1.5 5.3 163
30/06/2020 12:20 26.0 59 1010.0 600 0.0 1.4 5.1 188
30/06/2020 12:30 26.1 59 1017.0 600 0.0 1.0 3.4 148
30/06/2020 12:40 26.7 56 1015.0 600 0.0 1.7 6.0 185
30/06/2020 12:50 27.0 56 1004.0 600 0.0 1.3 4.6 185
30/06/2020 13:00 26.5 57 990.0 600 0.0 1.0 3.7 1
30/06/2020 13:10 26.8 59 964.0 600 0.0 1.3 4.7 32
30/06/2020 13:20 27.0 59 914.0 600 0.0 1.4 4.9 355
30/06/2020 13:30 27.1 56 841.0 496 0.0 1.0 3.5 64
30/06/2020 13:40 27.8 56 949.0 600 0.0 0.8 3.0 352
30/06/2020 13:50 27.9 58 954.0 600 0.0 1.5 5.4 333
30/06/2020 14:00 27.0 60 841.0 546 0.0 2.3 8.1 346
30/06/2020 14:10 26.7 63 909.0 600 0.0 2.2 8.0 353
30/06/2020 14:20 26.4 64 896.0 600 0.0 3.4 12.2 348
30/06/2020 14:30 25.9 67 869.0 600 0.0 3.5 12.7 334
30/06/2020 14:40 26.0 67 838.0 600 0.0 3.1 11.2 349
30/06/2020 14:50 26.0 67 815.0 600 0.0 3.1 11.0 341
30/06/2020 15:00 25.7 67 788.8 600 0.0 3.7 13.2 337
30/06/2020 15:10 25.4 68 765.9 600 0.0 3.6 13.1 338
30/06/2020 15:20 25.5 68 739.0 600 0.0 3.1 11.1 335
30/06/2020 15:30 25.6 68 709.7 600 0.0 2.9 10.5 334
30/06/2020 15:40 25.7 68 701.1 596 0.0 2.8 10.2 333
30/06/2020 15:50 25.7 67 660.8 600 0.0 3.0 10.7 334
30/06/2020 16:00 25.4 69 630.0 600 0.0 2.9 10.3 331
30/06/2020 16:10 25.3 69 598.5 600 0.0 2.9 10.5 328
30/06/2020 16:20 25.1 69 568.2 600 0.0 2.8 10.1 329
30/06/2020 16:30 25.0 68 542.5 600 0.0 3.1 11.2 333
30/06/2020 16:40 24.7 69 507.4 600 0.0 2.6 9.5 331
30/06/2020 16:50 24.5 69 477.7 600 0.0 3.4 12.3 334
30/06/2020 17:00 24.5 69 452.1 600 0.0 2.2 7.9 346
30/06/2020 17:10 24.2 69 422.2 600 0.0 2.9 10.4 337
30/06/2020 17:20 24.0 69 391.9 600 0.0 2.3 8.2 330
30/06/2020 17:30 23.8 69 348.6 558 0.0 3.1 11.3 331
30/06/2020 17:40 23.5 70 362.0 600 0.0 2.9 10.3 334
30/06/2020 17:50 23.5 70 369.7 600 0.0 3.1 11.2 336
30/06/2020 18:00 23.3 71 175.7 162 0.0 2.1 7.4 337
30/06/2020 18:10 22.4 73 107.9 0 0.0 3.0 10.6 334
30/06/2020 18:20 22.2 74 214.3 500 0.0 2.6 9.3 348
30/06/2020 18:30 22.8 72 180.4 432 0.0 2.6 9.5 351
30/06/2020 18:40 22.5 73 102.9 110 0.0 1.3 4.7 322
30/06/2020 18:50 22.0 75 75.9 0 0.0 1.1 4.1 307
30/06/2020 19:00 21.8 75 56.2 0 0.0 0.9 3.4 275
30/06/2020 19:10 21.7 75 53.3 166 0.0 1.7 6.2 328
30/06/2020 19:20 21.5 76 9.0 0 0.0 1.7 6.2 291
30/06/2020 19:30 21.1 80 0.0 0 0.9 2.1 7.6 323
30/06/2020 19:40 20.0 88 0.0 0 3.1 1.6 5.7 12
30/06/2020 19:50 19.5 93 0.0 0 0.7 1.1 4.1 157
30/06/2020 20:00 19.2 95 0.0 0 0.0 1.3 4.8 71
30/06/2020 20:10 19.0 95 0.0 0 0.0 1.4 4.9 351
30/06/2020 20:20 18.8 95 0.0 0 0.1 0.9 3.2 215
30/06/2020 20:30 18.6 96 0.0 0 0.0 1.4 5.0 322
30/06/2020 20:40 18.6 95 0.0 0 0.0 2.2 7.7 310
30/06/2020 20:50 18.6 94 0.0 0 0.0 1.8 6.4 311
30/06/2020 21:00 18.4 93 0.0 0 0.0 1.4 5.1 302
30/06/2020 21:10 18.3 94 0.0 0 0.0 1.4 5.2 300
30/06/2020 21:20 18.0 95 0.0 0 0.0 1.5 5.3 321
30/06/2020 21:30 17.9 95 0.0 0 0.0 1.2 4.4 323
30/06/2020 21:40 17.7 95 0.0 0 0.0 1.2 4.4 314
30/06/2020 21:50 17.7 95 0.0 0 0.0 0.5 1.7 129
30/06/2020 22:00 17.5 96 0.0 0 0.0 0.6 2.0 105
30/06/2020 22:10 17.3 97 0.0 0 0.0 1.6 5.7 21
30/06/2020 22:20 17.2 97 0.0 0 0.0 1.6 5.9 23
30/06/2020 22:30 17.0 97 0.0 0 0.0 1.0 3.6 142
30/06/2020 22:40 16.8 97 0.0 0 0.0 0.5 1.9 250
30/06/2020 22:50 16.7 98 0.0 0 0.0 0.3 1.1 325
30/06/2020 23:00 16.5 98 0.0 0 0.0 0.9 3.3 278
30/06/2020 23:10 16.3 98 0.0 0 0.0 1.4 5.2 320
30/06/2020 23:20 16.3 98 0.0 0 0.0 1.8 6.4 332
30/06/2020 23:30 16.6 98 0.0 0 0.0 1.8 6.6 333
30/06/2020 23:40 16.7 98 0.0 0 0.0 0.9 3.4 292
30/06/2020 23:50 16.4 98 0.0 0 0.0 0.6 2.2 294
Anterior Página 1 de 1 Siguiente

NOTA: Tipo de datos según el color:
   - Valores diarios o 10 minutos correctos
   - Valores diarios calculados a partir de un número de datos 10 minutos menor que 144 y mayor que 120, o de un número de datos semihorarios menor que 48 y mayor que 40 (caso de las estaciones de INTIA y del Ministerio)
   - Valores diez minutos estimados


Contacto        Enlaces        Aviso legal